createdAt,value
2022-12-19T00:01:25.706Z,102792.63
2022-12-19T00:06:48.901Z,102791.09
2022-12-19T00:09:15.356Z,102794.84
2022-12-19T00:11:41.770Z,102786.84
2022-12-19T00:14:08.268Z,102788.00
2022-12-19T00:16:34.650Z,102778.84
2022-12-19T00:21:45.336Z,102778.84
2022-12-19T00:24:20.754Z,102783.94
2022-12-19T00:26:48.191Z,102781.28
2022-12-19T00:29:14.826Z,102786.84
2022-12-19T00:31:41.410Z,102786.38
2022-12-19T00:34:07.874Z,102784.06
2022-12-19T00:36:34.308Z,102784.19
2022-12-19T00:39:01.535Z,102799.38
2022-12-19T00:41:32.788Z,102786.19
2022-12-19T00:44:01.941Z,102792.88
2022-12-19T00:46:28.270Z,102794.84
2022-12-19T00:48:54.715Z,102797.16
2022-12-19T00:51:21.044Z,102808.28
2022-12-19T00:53:48.474Z,102797.50
2022-12-19T00:56:14.855Z,102797.97
2022-12-19T00:58:46.557Z,102793.88
2022-12-19T01:01:13.628Z,102794.72
2022-12-19T01:03:49.306Z,102786.50
2022-12-19T01:06:24.759Z,102785.53
2022-12-19T01:08:51.149Z,102787.44
2022-12-19T01:11:20.275Z,102785.22
2022-12-19T01:13:46.643Z,102785.34
2022-12-19T01:16:13.042Z,102783.59
2022-12-19T01:18:39.458Z,102778.63
2022-12-19T01:21:05.901Z,102777.22
2022-12-19T01:23:32.296Z,102768.88
2022-12-19T01:25:58.673Z,102757.91
2022-12-19T01:28:25.073Z,102760.81
2022-12-19T01:30:54.261Z,102755.28
2022-12-19T01:33:21.501Z,102755.59
2022-12-19T01:35:49.693Z,102752.50
2022-12-19T01:38:16.899Z,102752.50
2022-12-19T01:40:44.128Z,102748.06
2022-12-19T01:43:13.309Z,102745.03
2022-12-19T01:45:45.352Z,102748.16
2022-12-19T01:48:12.419Z,102743.31
2022-12-19T01:50:39.623Z,102746.09
2022-12-19T01:53:10.535Z,102739.06
2022-12-19T01:55:36.930Z,102742.72
2022-12-19T01:58:03.247Z,102748.16
2022-12-19T02:00:29.592Z,102743.88
2022-12-19T02:02:56.905Z,102744.25
2022-12-19T02:05:23.402Z,102746.66
2022-12-19T02:10:33.869Z,102754.19
2022-12-19T02:13:01.014Z,102747.13
2022-12-19T02:15:27.379Z,102735.06
2022-12-19T02:17:53.736Z,102723.63
2022-12-19T02:20:20.077Z,102732.63
2022-12-19T02:25:31.344Z,102725.59
2022-12-19T02:27:57.750Z,102721.84
2022-12-19T02:30:24.233Z,102726.13
2022-12-19T02:32:50.651Z,102725.34
2022-12-19T02:35:17.025Z,102719.69
2022-12-19T02:40:37.254Z,102732.28
2022-12-19T02:43:03.685Z,102729.97
2022-12-19T02:45:30.907Z,102726.25
2022-12-19T02:47:58.143Z,102711.09
2022-12-19T02:50:27.862Z,102709.38
2022-12-19T02:55:49.525Z,102706.34
2022-12-19T02:58:15.991Z,102701.13
2022-12-19T03:00:42.379Z,102710.91
2022-12-19T03:03:09.676Z,102715.75
2022-12-19T03:05:36.108Z,102720.03
2022-12-19T03:10:46.154Z,102706.34
2022-12-19T03:13:12.537Z,102700.00
2022-12-19T03:15:39.041Z,102703.25
2022-12-19T03:18:05.684Z,102692.00
2022-12-19T03:20:32.047Z,102697.69
2022-12-19T03:25:43.661Z,102694.91
2022-12-19T03:28:09.996Z,102699.16
2022-12-19T03:30:37.252Z,102694.56
2022-12-19T03:33:04.506Z,102695.84
2022-12-19T03:35:31.716Z,102698.94
2022-12-19T03:40:52.884Z,102696.84
2022-12-19T03:43:19.291Z,102689.34
2022-12-19T03:45:46.011Z,102688.50
2022-12-19T03:48:13.280Z,102689.00
2022-12-19T03:50:39.677Z,102683.78
2022-12-19T03:55:59.728Z,102681.22
2022-12-19T03:58:26.116Z,102680.56
2022-12-19T04:00:52.431Z,102682.16
2022-12-19T04:03:18.851Z,102667.47
2022-12-19T04:05:45.275Z,102666.78
2022-12-19T04:11:05.536Z,102658.31
2022-12-19T04:13:31.929Z,102643.84
2022-12-19T04:15:58.371Z,102640.59
2022-12-19T04:18:24.784Z,102654.38
2022-12-19T04:20:51.182Z,102643.38
2022-12-19T04:26:12.104Z,102642.00
2022-12-19T04:28:38.475Z,102640.16
2022-12-19T04:31:05.789Z,102632.16
2022-12-19T04:33:32.205Z,102625.31
2022-12-19T04:35:58.615Z,102619.44
2022-12-19T04:41:10.003Z,102615.47
2022-12-19T04:43:36.395Z,102605.88
2022-12-19T04:46:02.896Z,102605.88
2022-12-19T04:48:29.310Z,102601.94
2022-12-19T04:50:56.609Z,102594.78
2022-12-19T04:53:23.843Z,102590.00
2022-12-19T04:55:50.189Z,102586.09
2022-12-19T04:58:21.692Z,102583.66
2022-12-19T05:00:48.518Z,102581.69
2022-12-19T05:03:15.012Z,102582.03
2022-12-19T05:05:41.479Z,102582.38
2022-12-19T05:08:08.553Z,102579.94
2022-12-19T05:10:34.926Z,102586.44
2022-12-19T05:13:01.284Z,102581.69
2022-12-19T05:15:29.595Z,102579.25
2022-12-19T05:17:55.928Z,102593.59
2022-12-19T05:20:22.245Z,102594.44
2022-12-19T05:22:48.579Z,102594.88
2022-12-19T05:25:15.808Z,102590.59
2022-12-19T05:27:44.915Z,102588.28
2022-12-19T05:30:11.296Z,102590.72
2022-12-19T05:32:38.551Z,102592.09
2022-12-19T05:35:06.860Z,102585.38
2022-12-19T05:37:34.711Z,102590.03
2022-12-19T05:40:01.293Z,102579.97
2022-12-19T05:42:27.880Z,102575.09
2022-12-19T05:44:55.093Z,102570.00
2022-12-19T05:47:21.426Z,102565.13
2022-12-19T05:49:47.884Z,102568.13
2022-12-19T05:52:16.160Z,102561.66
2022-12-19T05:54:43.456Z,102553.34
2022-12-19T05:57:09.867Z,102560.03
2022-12-19T05:59:36.325Z,102561.78
2022-12-19T06:02:04.763Z,102559.13
2022-12-19T06:04:33.108Z,102564.22
2022-12-19T06:06:59.542Z,102564.56
2022-12-19T06:09:26.247Z,102570.56
2022-12-19T06:14:46.623Z,102574.38
2022-12-19T06:17:15.800Z,102581.00
2022-12-19T06:19:42.225Z,102576.13
2022-12-19T06:22:09.486Z,102580.88
2022-12-19T06:24:35.959Z,102588.88
2022-12-19T06:29:46.870Z,102579.13
2022-12-19T06:32:15.139Z,102588.06
2022-12-19T06:37:27.961Z,102578.69
2022-12-19T06:39:55.201Z,102583.91
2022-12-19T06:45:05.500Z,102587.34
2022-12-19T06:47:32.121Z,102587.47
2022-12-19T06:49:58.843Z,102581.91
2022-12-19T06:52:26.335Z,102577.03
2022-12-19T06:54:53.793Z,102574.75
2022-12-19T07:00:14.186Z,102566.41
2022-12-19T07:02:40.865Z,102570.22
2022-12-19T07:05:07.349Z,102565.47
2022-12-19T07:07:36.046Z,102578.09
2022-12-19T07:10:02.444Z,102581.22
2022-12-19T07:15:12.867Z,102581.22
2022-12-19T07:17:39.243Z,102574.03
2022-12-19T07:20:08.422Z,102576.47
2022-12-19T07:22:34.850Z,102582.59
2022-12-19T07:25:01.300Z,102583.78
2022-12-19T07:30:14.485Z,102579.69
2022-12-19T07:32:41.751Z,102582.25
2022-12-19T07:35:08.300Z,102582.13
2022-12-19T07:37:36.593Z,102568.59
2022-12-19T07:40:03.949Z,102572.31
2022-12-19T07:45:25.348Z,102580.25
2022-12-19T07:47:51.794Z,102585.16
2022-12-19T07:50:18.258Z,102583.53
2022-12-19T07:52:45.723Z,102572.44
2022-12-19T07:55:13.211Z,102567.31
2022-12-19T08:00:23.869Z,102579.63
2022-12-19T08:02:50.456Z,102584.22
2022-12-19T08:05:17.090Z,102579.41
2022-12-19T08:07:43.591Z,102572.69
2022-12-19T08:10:10.074Z,102573.31
2022-12-19T08:15:21.998Z,102564.84
2022-12-19T08:17:48.532Z,102564.09
2022-12-19T08:20:15.932Z,102554.72
2022-12-19T08:22:42.395Z,102546.97
2022-12-19T08:25:08.859Z,102542.97
2022-12-19T08:30:31.747Z,102521.47
2022-12-19T08:32:59.070Z,102512.75
2022-12-19T08:35:25.510Z,102508.78
2022-12-19T08:37:51.988Z,102513.00
2022-12-19T08:40:18.570Z,102502.59
2022-12-19T08:45:29.233Z,102505.75
2022-12-19T08:47:56.626Z,102501.16
2022-12-19T08:50:23.098Z,102500.81
2022-12-19T08:52:49.557Z,102498.88
2022-12-19T08:55:16.051Z,102497.00
2022-12-19T09:00:38.619Z,102484.88
2022-12-19T09:03:05.382Z,102477.69
2022-12-19T09:06:03.648Z,102479.78
2022-12-19T09:08:19.908Z,102468.91
2022-12-19T09:10:46.424Z,102468.56
2022-12-19T09:15:57.876Z,102459.56
2022-12-19T09:18:25.384Z,102460.00
2022-12-19T09:20:52.835Z,102452.16
2022-12-19T09:23:19.373Z,102455.38
2022-12-19T09:25:46.856Z,102450.88
2022-12-19T09:30:58.401Z,102444.38
2022-12-19T09:33:25.789Z,102430.50
2022-12-19T09:35:52.296Z,102441.75
2022-12-19T09:38:21.821Z,102428.09
2022-12-19T09:40:49.301Z,102424.84
2022-12-19T09:45:59.976Z,102402.88
2022-12-19T09:48:26.634Z,102406.00
2022-12-19T09:50:53.109Z,102398.69
2022-12-19T09:53:19.614Z,102395.00
2022-12-19T09:55:46.115Z,102385.50
2022-12-19T09:58:13.488Z,102381.47
2022-12-19T10:00:40.024Z,102371.59
2022-12-19T10:03:06.608Z,102371.97
2022-12-19T10:06:26.490Z,102365.25
2022-12-19T10:08:20.755Z,102348.69
2022-12-19T10:12:42.572Z,102351.03
2022-12-19T10:13:34.825Z,102354.25
2022-12-19T10:16:02.119Z,102351.94
2022-12-19T10:18:30.442Z,102345.00
2022-12-19T10:20:56.974Z,102342.69
2022-12-19T10:23:24.361Z,102336.09
2022-12-19T10:25:52.639Z,102329.59
2022-12-19T10:28:20.153Z,102330.16
2022-12-19T10:30:47.567Z,102324.03
2022-12-19T10:33:19.787Z,102316.03
2022-12-19T10:35:48.344Z,102303.56
2022-12-19T10:38:15.636Z,102293.81
2022-12-19T10:40:42.997Z,102299.28
2022-12-19T10:43:09.490Z,102300.19
2022-12-19T10:45:38.411Z,102296.50
2022-12-19T10:48:06.713Z,102292.91
2022-12-19T10:50:33.205Z,102271.03
2022-12-19T10:52:59.638Z,102268.03
2022-12-19T10:55:26.135Z,102273.69
2022-12-19T10:57:52.632Z,102268.31
2022-12-19T11:00:19.169Z,102265.66
2022-12-19T11:02:45.751Z,102260.91
2022-12-19T11:05:12.455Z,102260.00
2022-12-19T11:07:38.965Z,102252.47
2022-12-19T11:10:28.823Z,102251.66
2022-12-19T11:17:04.239Z,102247.28
2022-12-19T11:19:45.552Z,102238.22
2022-12-19T11:27:03.900Z,102248.88
2022-12-19T11:29:24.898Z,102247.38
2022-12-19T11:30:45.508Z,102228.72
2022-12-19T11:30:46.941Z,102244.16
2022-12-19T11:32:39.772Z,102228.72
2022-12-19T11:35:09.099Z,102222.38
2022-12-19T11:37:39.113Z,102216.81
2022-12-19T11:40:05.583Z,102216.00
2022-12-19T11:42:32.990Z,102223.69
2022-12-19T11:44:59.453Z,102231.41
2022-12-19T11:47:26.868Z,102229.78
2022-12-19T11:49:53.353Z,102237.38
2022-12-19T11:55:08.120Z,102211.03
2022-12-19T11:57:35.461Z,102210.28
2022-12-19T12:00:05.294Z,102204.22
2022-12-19T12:02:32.344Z,102197.84
2022-12-19T12:04:58.801Z,102184.97
2022-12-19T12:08:25.474Z,102187.63
2022-12-19T12:16:06.756Z,102184.00
2022-12-19T12:21:44.131Z,102167.44
2022-12-19T12:31:02.830Z,102170.47
2022-12-19T12:31:22.013Z,102157.00
2022-12-19T12:31:39.472Z,102159.03
2022-12-19T12:31:48.512Z,102151.94
2022-12-19T12:31:49.209Z,102146.75
2022-12-19T12:40:49.701Z,102127.56
2022-12-19T12:43:16.167Z,102126.56
2022-12-19T12:45:42.678Z,102129.16
2022-12-19T12:51:03.417Z,102125.75
2022-12-19T12:53:29.983Z,102114.28
2022-12-19T12:55:56.446Z,102116.09
2022-12-19T12:58:23.966Z,102110.69
2022-12-19T13:00:50.561Z,102105.25
2022-12-19T13:06:11.510Z,102102.63
2022-12-19T13:08:38.082Z,102091.97
2022-12-19T13:11:04.638Z,102094.31
2022-12-19T13:13:33.056Z,102094.41
2022-12-19T13:16:01.339Z,102093.13
2022-12-19T13:21:13.704Z,102097.53
2022-12-19T13:23:41.985Z,102087.56
2022-12-19T13:26:16.374Z,102069.84
2022-12-19T13:28:46.875Z,102060.97
2022-12-19T13:31:21.210Z,102070.09
2022-12-19T13:39:50.986Z,102058.06
2022-12-19T13:40:00.881Z,102059.88
2022-12-19T13:42:10.016Z,102051.38
2022-12-19T13:44:36.456Z,102049.78
2022-12-19T13:47:02.859Z,102044.41
2022-12-19T13:52:13.374Z,102035.06
2022-12-19T13:54:39.844Z,102039.56
2022-12-19T13:57:09.396Z,102031.66
2022-12-19T13:59:37.184Z,102035.94
2022-12-19T14:02:05.721Z,102026.72
2022-12-19T14:07:30.344Z,102012.84
2022-12-19T14:11:33.672Z,102011.03
2022-12-19T14:14:00.594Z,102016.59
2022-12-19T14:15:37.866Z,102007.91
2022-12-19T14:18:05.066Z,102005.22
2022-12-19T14:22:02.264Z,102006.94
2022-12-19T14:23:43.636Z,101998.88
2022-12-19T14:28:23.442Z,101999.22
2022-12-19T14:29:01.995Z,101998.16
2022-12-19T14:31:28.484Z,101996.97
2022-12-19T14:34:43.166Z,101995.66
2022-12-19T14:36:43.228Z,101989.22
2022-12-19T14:39:27.007Z,101979.34
2022-12-19T14:42:00.624Z,101975.41
2022-12-19T14:51:09.062Z,101964.91
2022-12-19T14:53:10.758Z,101969.59
2022-12-19T14:54:18.499Z,101940.88
2022-12-19T14:54:37.232Z,101935.91
2022-12-19T14:56:12.547Z,101933.25
2022-12-19T14:58:52.515Z,101945.19
2022-12-19T15:01:22.918Z,101933.03
2022-12-19T15:07:07.233Z,101933.03
2022-12-19T15:10:58.089Z,101932.19
2022-12-19T15:14:48.128Z,101929.78
2022-12-19T15:15:06.927Z,101919.41
2022-12-19T15:17:33.364Z,101916.97
2022-12-19T15:22:43.650Z,101907.91
2022-12-19T15:25:36.037Z,101906.75
2022-12-19T15:27:57.506Z,101899.56
2022-12-19T15:30:23.970Z,101898.78
2022-12-19T15:32:50.404Z,101903.63
2022-12-19T15:38:03.568Z,101895.28
2022-12-19T15:40:30.925Z,101890.16
2022-12-19T15:42:58.338Z,101883.66
2022-12-19T15:45:24.812Z,101871.78
2022-12-19T15:47:52.215Z,101876.56
2022-12-19T15:53:19.338Z,101882.09
2022-12-19T15:55:53.213Z,101891.63
2022-12-19T15:58:20.616Z,101889.00
2022-12-19T16:00:47.061Z,101883.38
2022-12-19T16:03:23.369Z,101870.84
2022-12-19T16:08:46.181Z,101845.06
2022-12-19T16:11:12.796Z,101836.78
2022-12-19T16:13:40.086Z,101844.63
2022-12-19T16:16:15.136Z,101844.19
2022-12-19T16:18:42.364Z,101850.75
2022-12-19T16:23:54.587Z,101840.66
2022-12-19T16:26:21.909Z,101832.69
2022-12-19T16:28:51.098Z,101811.22
2022-12-19T16:31:18.388Z,101813.16
2022-12-19T16:33:45.775Z,101803.25
2022-12-19T16:38:57.070Z,101796.41
2022-12-19T16:41:24.366Z,101787.66
2022-12-19T16:43:50.883Z,101799.19
2022-12-19T16:46:17.360Z,101783.72
2022-12-19T16:48:44.711Z,101782.91
2022-12-19T16:54:06.157Z,101777.69
2022-12-19T16:56:32.691Z,101765.81
2022-12-19T16:58:59.935Z,101753.91
2022-12-19T17:01:26.471Z,101753.91
2022-12-19T17:03:53.774Z,101751.91
2022-12-19T17:09:06.172Z,101742.78
2022-12-19T17:11:32.641Z,101752.28
2022-12-19T17:14:01.081Z,101735.19
2022-12-19T17:16:30.318Z,101727.50
2022-12-19T17:18:59.548Z,101731.91
2022-12-19T17:24:20.682Z,101730.72
2022-12-19T17:26:47.929Z,101731.53
2022-12-19T17:29:14.377Z,101722.38
2022-12-19T17:31:41.925Z,101721.59
2022-12-19T17:34:09.307Z,101721.59
2022-12-19T17:39:29.596Z,101709.69
2022-12-19T17:41:56.065Z,101701.34
2022-12-19T17:44:23.382Z,101710.47
2022-12-19T17:46:49.822Z,101714.06
2022-12-19T17:49:17.216Z,101703.78
2022-12-19T17:54:29.638Z,101716.03
2022-12-19T17:56:56.093Z,101712.47
2022-12-19T17:59:22.564Z,101696.59
2022-12-19T18:01:50.058Z,101700.19
2022-12-19T18:04:17.558Z,101686.28
2022-12-19T18:09:28.940Z,101700.53
2022-12-19T18:11:56.333Z,101687.03
2022-12-19T18:14:23.741Z,101687.47
2022-12-19T18:16:51.213Z,101691.41
2022-12-19T18:19:18.617Z,101689.81
2022-12-19T18:24:30.014Z,101670.00
2022-12-19T18:26:56.457Z,101679.50
2022-12-19T18:29:23.022Z,101664.00
2022-12-19T18:31:51.293Z,101665.63
2022-12-19T18:34:17.945Z,101666.44
2022-12-19T18:36:44.402Z,101672.78
2022-12-19T18:39:10.862Z,101662.50
2022-12-19T18:41:37.345Z,101660.06
2022-12-19T18:44:03.811Z,101644.22
2022-12-19T18:46:31.206Z,101648.97
2022-12-19T18:48:57.702Z,101650.94
2022-12-19T18:51:25.447Z,101641.81
2022-12-19T18:53:52.954Z,101632.69
2022-12-19T18:56:19.424Z,101634.31
2022-12-19T18:58:46.907Z,101635.09
2022-12-19T19:01:13.528Z,101632.31
2022-12-19T19:03:40.115Z,101629.53
2022-12-19T19:06:06.633Z,101631.13
2022-12-19T19:08:34.096Z,101624.00
2022-12-19T19:11:01.498Z,101614.88
2022-12-19T19:13:28.913Z,101614.88
2022-12-19T19:15:56.321Z,101606.53
2022-12-19T19:18:23.803Z,101598.22
2022-12-19T19:20:53.163Z,101592.25
2022-12-19T19:23:23.756Z,101589.88
2022-12-19T19:25:50.214Z,101594.25
2022-12-19T19:28:17.605Z,101600.59
2022-12-19T19:30:44.075Z,101586.72
2022-12-19T19:33:10.669Z,101587.09
2022-12-19T19:35:37.115Z,101583.13
2022-12-19T19:38:04.562Z,101580.38
2022-12-19T19:40:31.287Z,101574.81
2022-12-19T19:42:57.775Z,101580.38
2022-12-19T19:45:24.250Z,101572.41
2022-12-19T19:47:50.729Z,101572.03
2022-12-19T19:50:18.358Z,101563.72
2022-12-19T19:52:44.847Z,101556.63
2022-12-19T19:57:56.459Z,101551.16
2022-12-19T20:00:23.980Z,101554.34
2022-12-19T20:02:52.001Z,101547.66
2022-12-19T20:05:19.584Z,101540.47
2022-12-19T20:07:46.068Z,101541.25
2022-12-19T20:12:57.829Z,101551.53
2022-12-19T20:15:24.380Z,101550.78
2022-12-19T20:17:51.961Z,101538.28
2022-12-19T20:20:18.459Z,101534.56
2022-12-19T20:22:44.980Z,101535.84
2022-12-19T20:28:06.531Z,101515.16
2022-12-19T20:30:34.015Z,101518.81
2022-12-19T20:33:00.487Z,101500.97
2022-12-19T20:35:27.915Z,101502.94
2022-12-19T20:37:55.567Z,101501.28
2022-12-19T20:43:08.044Z,101492.63
2022-12-19T20:45:35.466Z,101498.19
2022-12-19T20:48:01.944Z,101506.09
2022-12-19T20:50:29.363Z,101501.69
2022-12-19T20:52:55.838Z,101494.66
2022-12-19T20:58:17.288Z,101492.63
2022-12-19T21:00:44.663Z,101487.88
2022-12-19T21:03:29.346Z,101488.69
2022-12-19T21:05:56.628Z,101490.22
2022-12-19T21:08:23.102Z,101485.16
2022-12-19T21:13:44.356Z,101470.50
2022-12-19T21:16:12.035Z,101464.28
2022-12-19T21:18:39.545Z,101468.63
2022-12-19T21:21:06.035Z,101463.91
2022-12-19T21:23:33.443Z,101469.81
2022-12-19T21:28:45.732Z,101455.09
2022-12-19T21:31:13.236Z,101447.59
2022-12-19T21:33:40.772Z,101445.63
2022-12-19T21:36:07.261Z,101435.56
2022-12-19T21:38:34.665Z,101438.31
2022-12-19T21:43:56.008Z,101422.28
2022-12-19T21:46:23.286Z,101419.06
2022-12-19T21:48:50.788Z,101400.84
2022-12-19T21:51:18.190Z,101406.28
2022-12-19T21:53:45.544Z,101399.63
2022-12-19T21:59:05.947Z,101383.38
2022-12-19T22:01:32.526Z,101371.41
2022-12-19T22:03:59.277Z,101366.00
2022-12-19T22:06:28.582Z,101359.06
2022-12-19T22:08:55.192Z,101366.69
2022-12-19T22:14:15.539Z,101356.78
2022-12-19T22:16:42.994Z,101363.69
2022-12-19T22:19:09.508Z,101357.19
2022-12-19T22:21:36.819Z,101349.44
2022-12-19T22:24:03.293Z,101347.72
2022-12-19T22:29:24.632Z,101348.25
2022-12-19T22:31:51.967Z,101344.56
2022-12-19T22:34:19.444Z,101335.81
2022-12-19T22:36:45.956Z,101339.28
2022-12-19T22:39:13.342Z,101333.09
2022-12-19T22:44:25.419Z,101327.00
2022-12-19T22:46:52.719Z,101328.69
2022-12-19T22:49:19.173Z,101318.28
2022-12-19T22:51:45.612Z,101319.09
2022-12-19T22:54:14.749Z,101313.13
2022-12-19T22:59:26.063Z,101312.28
2022-12-19T23:01:54.526Z,101298.88
2022-12-19T23:04:21.361Z,101295.97
2022-12-19T23:06:47.998Z,101299.94
2022-12-19T23:09:14.424Z,101297.94
2022-12-19T23:14:25.014Z,101286.31
2022-12-19T23:16:52.386Z,101280.44
2022-12-19T23:19:18.941Z,101277.00
2022-12-19T23:21:46.335Z,101274.88
2022-12-19T23:24:15.496Z,101269.78
2022-12-19T23:29:37.056Z,101265.03
2022-12-19T23:32:04.456Z,101263.41
2022-12-19T23:34:31.823Z,101260.09
2022-12-19T23:37:14.556Z,101262.88
2022-12-19T23:39:41.933Z,101260.94
2022-12-19T23:45:04.083Z,101260.03
2022-12-19T23:47:31.479Z,101262.13
2022-12-19T23:49:58.830Z,101251.34
2022-12-19T23:52:25.259Z,101249.03
2022-12-19T23:54:51.710Z,101256.59
